createdAt,value
2018-06-11T00:00:40.925Z,19.67
2018-06-11T00:03:09.868Z,19.68
2018-06-11T00:05:41.842Z,19.66
2018-06-11T00:08:13.971Z,19.64
2018-06-11T00:10:48.049Z,19.63
2018-06-11T00:13:16.910Z,19.62
2018-06-11T00:15:45.934Z,19.61
2018-06-11T00:18:14.999Z,19.59
2018-06-11T00:20:44.075Z,19.57
2018-06-11T00:23:17.924Z,19.53
2018-06-11T00:25:48.231Z,19.50
2018-06-11T00:28:23.993Z,19.48
2018-06-11T00:30:52.823Z,19.45
2018-06-11T00:33:21.748Z,19.46
2018-06-11T00:35:50.574Z,19.46
2018-06-11T00:38:19.669Z,19.46
2018-06-11T00:40:52.829Z,19.46
2018-06-11T00:43:25.849Z,19.45
2018-06-11T00:45:56.044Z,19.42
2018-06-11T00:48:25.058Z,19.39
2018-06-11T00:50:53.826Z,19.36
2018-06-11T00:53:22.735Z,19.34
2018-06-11T00:56:07.762Z,19.32
2018-06-11T00:58:41.412Z,19.30
2018-06-11T01:01:13.127Z,19.29
2018-06-11T01:03:49.857Z,19.27
2018-06-11T01:06:18.817Z,19.24
2018-06-11T01:08:47.550Z,19.20
2018-06-11T01:11:16.776Z,19.18
2018-06-11T01:13:48.688Z,19.14
2018-06-11T01:16:20.536Z,19.10
2018-06-11T01:18:52.744Z,19.05
2018-06-11T01:21:21.578Z,19.02
2018-06-11T01:23:50.386Z,18.99
2018-06-11T01:26:19.260Z,18.96
2018-06-11T01:28:48.310Z,18.93
2018-06-11T01:31:18.740Z,18.90
2018-06-11T01:33:49.774Z,18.86
2018-06-11T01:36:20.516Z,18.82
2018-06-11T01:38:49.461Z,18.78
2018-06-11T01:41:18.326Z,18.76
2018-06-11T01:43:47.173Z,18.72
2018-06-11T01:46:16.802Z,18.68
2018-06-11T01:48:48.074Z,18.63
2018-06-11T01:51:21.087Z,18.60
2018-06-11T01:53:52.470Z,18.52
2018-06-11T01:56:21.247Z,18.47
2018-06-11T01:58:50.116Z,18.37
2018-06-11T02:01:18.902Z,18.23
2018-06-11T02:03:48.038Z,18.15
2018-06-11T02:06:20.508Z,18.14
2018-06-11T02:08:53.091Z,18.13
2018-06-11T02:11:25.433Z,18.11
2018-06-11T02:13:54.300Z,18.10
2018-06-11T02:16:23.118Z,18.09
2018-06-11T02:18:52.091Z,18.07
2018-06-11T02:21:21.635Z,18.02
2018-06-11T02:23:52.695Z,18.01
2018-06-11T02:26:24.026Z,18.00
2018-06-11T02:28:55.894Z,17.98
2018-06-11T02:31:24.858Z,17.96
2018-06-11T02:33:53.646Z,17.95
2018-06-11T02:36:22.641Z,17.93
2018-06-11T02:38:52.288Z,17.90
2018-06-11T02:41:22.117Z,17.91
2018-06-11T02:43:56.996Z,17.90
2018-06-11T02:46:28.977Z,17.87
2018-06-11T02:48:57.744Z,17.83
2018-06-11T02:51:26.663Z,17.81
2018-06-11T02:53:55.662Z,17.77
2018-06-11T02:56:27.071Z,17.72
2018-06-11T02:58:57.863Z,17.71
2018-06-11T03:01:28.711Z,17.69
2018-06-11T03:04:01.946Z,17.69
2018-06-11T03:06:30.827Z,17.69
2018-06-11T03:08:59.914Z,17.68
2018-06-11T03:11:28.908Z,17.62
2018-06-11T03:14:00.127Z,17.59
2018-06-11T03:16:32.151Z,17.57
2018-06-11T03:19:04.043Z,17.55
2018-06-11T03:21:32.854Z,17.52
2018-06-11T03:24:01.619Z,17.50
2018-06-11T03:26:30.519Z,17.44
2018-06-11T03:28:59.771Z,17.41
2018-06-11T03:31:32.257Z,17.36
2018-06-11T03:34:04.233Z,17.34
2018-06-11T03:36:36.356Z,17.35
2018-06-11T03:39:08.241Z,17.33
2018-06-11T03:41:37.574Z,17.31
2018-06-11T03:44:06.345Z,17.29
2018-06-11T03:46:35.495Z,17.27
2018-06-11T03:49:08.387Z,17.24
2018-06-11T03:51:38.664Z,17.23
2018-06-11T03:54:11.669Z,17.22
2018-06-11T03:56:40.495Z,17.20
2018-06-11T03:59:23.110Z,17.20
2018-06-11T04:01:52.083Z,17.16
2018-06-11T04:04:27.768Z,17.15
2018-06-11T04:07:00.060Z,17.11
2018-06-11T04:16:58.177Z,17.14
2018-06-11T04:19:27.193Z,17.03
2018-06-11T04:21:57.446Z,17.07
2018-06-11T04:24:28.264Z,17.06
2018-06-11T04:26:58.609Z,17.07
2018-06-11T04:29:32.381Z,17.04
2018-06-11T04:32:01.184Z,17.05
2018-06-11T04:34:30.042Z,17.02
2018-06-11T04:36:59.074Z,17.02
2018-06-11T04:39:30.027Z,17.03
2018-06-11T04:42:00.249Z,17.03
2018-06-11T04:44:32.718Z,17.03
2018-06-11T04:47:01.602Z,17.03
2018-06-11T04:49:30.374Z,17.03
2018-06-11T04:52:00.218Z,17.01
2018-06-11T04:54:29.439Z,17.05
2018-06-11T04:56:58.767Z,17.05
2018-06-11T04:59:28.088Z,17.04
2018-06-11T05:01:58.418Z,17.06
2018-06-11T05:04:27.306Z,17.07
2018-06-11T05:06:56.434Z,17.08
2018-06-11T05:09:25.250Z,17.11
2018-06-11T05:11:54.459Z,17.12
2018-06-11T05:14:24.006Z,17.14
2018-06-11T05:16:53.731Z,17.17
2018-06-11T05:19:25.740Z,17.18
2018-06-11T05:21:54.558Z,17.19
2018-06-11T05:24:23.491Z,17.21
2018-06-11T05:26:52.399Z,17.24
2018-06-11T05:29:21.662Z,17.24
2018-06-11T05:31:52.020Z,17.24
2018-06-11T05:34:22.007Z,17.27
2018-06-11T05:36:51.679Z,17.27
2018-06-11T05:39:20.390Z,17.33
2018-06-11T05:41:49.671Z,17.36
2018-06-11T05:44:18.505Z,17.34
2018-06-11T05:46:49.150Z,17.37
2018-06-11T05:49:24.852Z,17.36
2018-06-11T05:51:58.079Z,17.37
2018-06-11T05:54:29.959Z,17.42
2018-06-11T05:56:58.819Z,17.46
2018-06-11T05:59:27.862Z,17.51
2018-06-11T06:01:57.097Z,17.54
2018-06-11T06:04:29.877Z,17.58
2018-06-11T06:07:06.083Z,17.58
2018-06-11T06:09:40.751Z,17.63
2018-06-11T06:12:09.746Z,17.68
2018-06-11T06:14:38.738Z,17.71
2018-06-11T06:17:07.758Z,17.75
2018-06-11T06:19:36.708Z,17.80
2018-06-11T06:22:12.510Z,17.83
2018-06-11T06:24:46.015Z,17.85
2018-06-11T06:27:21.657Z,17.88
2018-06-11T06:29:50.459Z,17.91
2018-06-11T06:32:19.630Z,17.93
2018-06-11T06:34:48.621Z,17.97
2018-06-11T06:37:18.346Z,17.99
2018-06-11T06:39:51.745Z,18.03
2018-06-11T06:42:24.628Z,18.07
2018-06-11T06:44:57.553Z,18.11
2018-06-11T06:47:26.454Z,18.16
2018-06-11T06:49:55.594Z,18.20
2018-06-11T06:52:24.397Z,18.23
2018-06-11T06:54:54.786Z,18.26
2018-06-11T06:57:26.105Z,18.29
2018-06-11T06:59:56.345Z,18.31
2018-06-11T07:02:26.557Z,18.34
2018-06-11T07:04:56.112Z,18.37
2018-06-11T07:07:24.986Z,18.40
2018-06-11T07:09:53.918Z,18.41
2018-06-11T07:12:23.211Z,18.43
2018-06-11T07:14:53.472Z,18.46
2018-06-11T07:17:25.501Z,18.50
2018-06-11T07:19:54.860Z,18.54
2018-06-11T07:22:23.864Z,18.59
2018-06-11T07:24:52.609Z,18.63
2018-06-11T07:27:21.606Z,18.66
2018-06-11T07:29:50.814Z,18.71
2018-06-11T07:32:20.035Z,18.74
2018-06-11T07:34:49.427Z,18.81
2018-06-11T07:38:11.011Z,18.86
2018-06-11T07:40:39.883Z,18.95
2018-06-11T07:43:08.717Z,19.02
2018-06-11T07:45:37.682Z,19.10
2018-06-11T07:48:06.876Z,19.16
2018-06-11T07:57:29.999Z,19.41
2018-06-11T07:59:58.935Z,19.48
2018-06-11T08:02:28.170Z,19.54
2018-06-11T08:04:57.463Z,19.58
2018-06-11T08:07:26.601Z,19.63
2018-06-11T08:09:56.380Z,19.67
2018-06-11T08:12:25.401Z,19.75
2018-06-11T08:14:54.410Z,19.86
2018-06-11T08:17:23.592Z,19.96
2018-06-11T08:19:52.781Z,20.07
2018-06-11T08:31:30.188Z,20.62
2018-06-11T08:33:59.291Z,20.76
2018-06-11T13:49:57.179Z,28.46
2018-06-11T13:52:26.258Z,28.55
2018-06-11T13:54:55.259Z,28.66
2018-06-11T14:09:37.440Z,29.32
2018-06-11T14:12:07.115Z,29.42
2018-06-11T14:14:36.772Z,29.43
2018-06-11T14:26:21.999Z,29.04
2018-06-11T14:28:52.125Z,28.70
2018-06-11T14:31:23.028Z,28.41
2018-06-11T14:43:22.415Z,27.88
2018-06-11T14:45:53.055Z,27.82
2018-06-11T14:48:22.869Z,27.84
2018-06-11T15:03:04.835Z,27.99
2018-06-11T15:05:34.068Z,28.16
2018-06-11T15:20:21.854Z,28.99
2018-06-11T15:22:52.811Z,29.11
2018-06-11T15:37:34.492Z,29.96
2018-06-11T15:40:03.698Z,30.00
2018-06-11T15:42:38.284Z,30.06
2018-06-11T16:18:42.360Z,31.49
2018-06-11T16:21:12.461Z,31.59
2018-06-11T16:23:45.325Z,31.63
2018-06-11T16:26:24.666Z,31.58
2018-06-11T16:29:15.599Z,31.58
2018-06-11T16:31:45.680Z,31.54
2018-06-11T16:34:14.763Z,31.66
2018-06-11T16:36:44.104Z,31.84
2018-06-11T16:45:21.134Z,31.87
2018-06-11T16:48:04.077Z,31.74
2018-06-11T16:53:37.472Z,31.69
2018-06-11T16:56:24.142Z,31.77
2018-06-11T16:59:49.589Z,31.85
2018-06-11T17:05:09.884Z,32.02
2018-06-11T17:07:41.338Z,32.03
2018-06-11T17:10:16.182Z,31.95
2018-06-11T17:12:48.087Z,31.75
2018-06-11T17:18:25.943Z,31.63
2018-06-11T17:24:05.294Z,31.45
2018-06-11T17:29:52.822Z,31.25
2018-06-11T17:35:17.984Z,31.29
2018-06-11T17:37:52.980Z,31.27
2018-06-11T17:43:29.971Z,31.23
2018-06-11T17:46:21.561Z,31.16
2018-06-11T17:49:00.652Z,31.14
2018-06-11T17:54:24.673Z,30.84
2018-06-11T17:57:01.948Z,30.74
2018-06-11T17:59:33.298Z,30.68
2018-06-11T18:02:02.189Z,30.64
2018-06-11T18:04:31.107Z,30.63
2018-06-11T18:07:00.291Z,30.63
2018-06-11T18:09:32.608Z,30.67
2018-06-11T18:12:08.486Z,30.67
2018-06-11T18:14:45.106Z,30.66
2018-06-11T18:17:20.210Z,30.56
2018-06-11T18:19:57.395Z,30.45
2018-06-11T18:22:29.929Z,30.39
2018-06-11T18:25:01.351Z,30.36
2018-06-11T18:27:36.450Z,30.27
2018-06-11T18:30:09.644Z,30.19
2018-06-11T18:32:44.245Z,30.06
2018-06-11T18:35:17.352Z,30.00
2018-06-11T18:37:48.741Z,29.97
2018-06-11T18:40:21.712Z,29.88
2018-06-11T18:42:53.872Z,29.80
2018-06-11T18:45:22.812Z,29.59
2018-06-11T18:47:51.629Z,29.13
2018-06-11T18:50:20.595Z,28.67
2018-06-11T18:52:50.657Z,28.17
2018-06-11T18:55:20.542Z,27.63
2018-06-11T18:57:53.556Z,27.24
2018-06-11T19:00:24.687Z,26.84
2018-06-11T19:02:54.945Z,26.46
2018-06-11T19:05:26.363Z,26.13
2018-06-11T19:08:01.111Z,25.85
2018-06-11T19:10:50.479Z,25.54
2018-06-11T19:15:59.041Z,25.00
2018-06-11T19:18:28.423Z,24.73
2018-06-11T19:20:57.464Z,24.47
2018-06-11T19:23:32.590Z,24.22
2018-06-11T19:34:56.869Z,23.56
2018-06-11T19:43:58.351Z,23.11
2018-06-11T19:46:27.718Z,23.03
2018-06-11T19:48:56.936Z,22.97
2018-06-11T19:51:29.831Z,22.90
2018-06-11T20:03:22.157Z,22.48
2018-06-11T20:06:04.272Z,22.38
2018-06-11T20:08:45.354Z,22.31
2018-06-11T20:11:22.294Z,22.23
2018-06-11T20:22:09.696Z,21.91
2018-06-11T20:24:38.502Z,21.84
2018-06-11T20:27:07.497Z,21.79
2018-06-11T20:29:39.264Z,21.75
2018-06-11T20:32:21.373Z,21.67
2018-06-11T20:43:32.785Z,21.38
2018-06-11T20:46:05.977Z,21.34
2018-06-11T20:48:50.083Z,21.30
2018-06-11T20:51:25.249Z,21.22
2018-06-11T20:54:09.471Z,21.20
2018-06-11T20:56:53.592Z,21.14
2018-06-11T21:02:21.918Z,21.03
2018-06-11T21:04:53.655Z,20.98
2018-06-11T21:07:26.490Z,20.95
2018-06-11T21:09:55.391Z,20.93
2018-06-11T21:12:24.251Z,20.90
2018-06-11T21:14:53.307Z,20.86
2018-06-11T21:17:23.516Z,20.84
2018-06-11T21:38:53.879Z,20.44
2018-06-11T21:41:22.869Z,20.39
2018-06-11T21:43:51.998Z,20.34
2018-06-11T21:46:21.157Z,20.32
2018-06-11T21:48:50.379Z,20.29
2018-06-11T21:55:00.604Z,20.13
2018-06-11T22:00:53.035Z,20.07
2018-06-11T22:03:32.517Z,20.01
2018-06-11T22:06:13.341Z,19.96
2018-06-11T22:08:50.424Z,19.92
2018-06-11T22:14:07.476Z,19.84
2018-06-11T22:16:40.628Z,19.83
2018-06-11T22:19:13.876Z,19.79
2018-06-11T22:21:45.652Z,19.79
2018-06-11T22:24:18.480Z,19.78
2018-06-11T22:26:47.380Z,19.73
2018-06-11T22:29:16.404Z,19.66
2018-06-11T22:31:45.378Z,19.62
2018-06-11T22:34:14.467Z,19.58
2018-06-11T22:36:49.814Z,19.54
2018-06-11T22:42:17.160Z,19.43
2018-06-11T22:56:57.470Z,19.13
2018-06-11T22:59:37.969Z,19.09
2018-06-11T23:02:17.773Z,19.05
2018-06-11T23:04:56.339Z,19.05
2018-06-11T23:10:24.768Z,18.98
2018-06-11T23:13:12.796Z,18.97
2018-06-11T23:15:54.566Z,18.94
2018-06-11T23:18:41.114Z,18.92
2018-06-11T23:21:22.156Z,18.89
2018-06-11T23:24:05.758Z,18.84
2018-06-11T23:29:36.678Z,18.76
2018-06-11T23:35:16.457Z,18.66
2018-06-11T23:37:49.896Z,18.65
2018-06-11T23:51:34.547Z,18.50
2018-06-11T23:54:03.451Z,18.48
2018-06-11T23:56:32.262Z,18.46
2018-06-11T23:59:05.867Z,18.45
